createdAt,value
2023-04-15T00:00:08.601Z,98580.34
2023-04-15T00:00:20.635Z,98579.50
2023-04-15T00:00:33.975Z,98585.53
2023-04-15T00:00:46.045Z,98576.94
2023-04-15T00:00:59.767Z,98587.09
2023-04-15T00:01:12.082Z,98584.47
2023-04-15T00:01:24.797Z,98581.00
2023-04-15T00:01:37.250Z,98587.75
2023-04-15T00:01:49.351Z,98582.59
2023-04-15T00:02:01.454Z,98585.09
2023-04-15T00:02:18.723Z,98583.25
2023-04-15T00:02:31.205Z,98580.56
2023-04-15T00:02:44.207Z,98587.31
2023-04-15T00:02:56.443Z,98589.84
2023-04-15T00:03:08.900Z,98582.06
2023-04-15T00:03:21.264Z,98585.47
2023-04-15T00:03:34.546Z,98583.72
2023-04-15T00:03:50.592Z,98588.72
2023-04-15T00:04:02.775Z,98582.72
2023-04-15T00:04:14.875Z,98584.31
2023-04-15T00:04:28.042Z,98581.75
2023-04-15T00:04:40.066Z,98580.00
2023-04-15T00:04:52.169Z,98586.09
2023-04-15T00:05:05.991Z,98587.78
2023-04-15T00:05:17.954Z,98584.28
2023-04-15T00:05:30.595Z,98589.34
2023-04-15T00:05:43.238Z,98586.03
2023-04-15T00:05:55.311Z,98588.47
2023-04-15T00:06:07.622Z,98586.06
2023-04-15T00:06:20.482Z,98584.31
2023-04-15T00:06:32.536Z,98582.69
2023-04-15T00:06:53.187Z,98587.13
2023-04-15T00:07:05.149Z,98581.13
2023-04-15T00:07:18.007Z,98580.28
2023-04-15T00:07:29.994Z,98583.69
2023-04-15T00:07:42.025Z,98580.19
2023-04-15T00:07:54.633Z,98581.97
2023-04-15T00:08:06.570Z,98577.56
2023-04-15T00:08:18.495Z,98583.69
2023-04-15T00:08:30.955Z,98591.41
2023-04-15T00:08:43.486Z,98580.38
2023-04-15T00:08:55.795Z,98583.84
2023-04-15T00:09:07.895Z,98579.50
2023-04-15T00:09:21.113Z,98582.94
2023-04-15T00:09:33.046Z,98583.94
2023-04-15T00:09:45.034Z,98582.25
2023-04-15T00:09:57.808Z,98581.41
2023-04-15T00:10:09.883Z,98579.75
2023-04-15T00:10:21.950Z,98581.56
2023-04-15T00:10:34.016Z,98578.09
2023-04-15T00:10:46.688Z,98580.66
2023-04-15T00:11:02.695Z,98586.66
2023-04-15T00:11:15.114Z,98580.66
2023-04-15T00:11:27.022Z,98580.66
2023-04-15T00:11:38.923Z,98578.97
2023-04-15T00:11:51.184Z,98578.88
2023-04-15T00:12:03.527Z,98584.88
2023-04-15T00:12:15.475Z,98586.50
2023-04-15T00:12:28.183Z,98589.13
2023-04-15T00:12:41.126Z,98590.72
2023-04-15T00:12:53.286Z,98583.84
2023-04-15T00:13:05.203Z,98578.78
2023-04-15T00:13:20.253Z,98577.00
2023-04-15T00:13:35.131Z,98584.69
2023-04-15T00:13:47.036Z,98586.38
2023-04-15T00:13:59.299Z,98583.75
2023-04-15T00:14:11.380Z,98584.69
2023-04-15T00:14:23.331Z,98583.78
2023-04-15T00:14:38.671Z,98581.16
2023-04-15T00:14:51.125Z,98588.03
2023-04-15T00:15:03.414Z,98586.31
2023-04-15T00:15:15.368Z,98582.81
2023-04-15T00:15:27.378Z,98581.91
2023-04-15T00:15:39.348Z,98584.41
2023-04-15T00:15:52.160Z,98581.75
2023-04-15T00:16:04.371Z,98581.59
2023-04-15T00:16:16.367Z,98584.19
2023-04-15T00:16:28.349Z,98581.59
2023-04-15T00:16:40.666Z,98587.56
2023-04-15T00:16:56.119Z,98578.97
2023-04-15T00:17:08.525Z,98580.59
2023-04-15T00:17:43.021Z,98575.38
2023-04-15T00:17:55.073Z,98576.97
2023-04-15T00:18:08.004Z,98576.00
2023-04-15T00:18:19.972Z,98577.69
2023-04-15T00:18:32.643Z,98582.84
2023-04-15T00:18:44.557Z,98576.00
2023-04-15T00:18:56.879Z,98581.22
2023-04-15T00:19:08.862Z,98582.91
2023-04-15T00:19:20.852Z,98580.25
2023-04-15T00:19:33.240Z,98576.00
2023-04-15T00:19:45.913Z,98576.81
2023-04-15T00:19:59.828Z,98579.38
2023-04-15T00:20:11.974Z,98581.00
2023-04-15T00:20:23.997Z,98577.59
2023-04-15T00:20:35.964Z,98578.41
2023-04-15T00:20:47.911Z,98579.19
2023-04-15T00:21:00.160Z,98579.97
2023-04-15T00:21:12.397Z,98579.94
2023-04-15T00:21:24.323Z,98572.16
2023-04-15T00:21:36.392Z,98574.66
2023-04-15T00:21:48.264Z,98569.47
2023-04-15T00:22:00.686Z,98571.16
2023-04-15T00:22:13.124Z,98568.59
2023-04-15T00:22:25.131Z,98574.53
2023-04-15T00:22:37.120Z,98576.25
2023-04-15T00:22:49.058Z,98571.97
2023-04-15T00:23:02.601Z,98572.75
2023-04-15T00:23:14.584Z,98577.06
2023-04-15T00:23:26.667Z,98576.25
2023-04-15T00:23:38.708Z,98572.00
2023-04-15T00:23:53.638Z,98584.78
2023-04-15T00:24:05.699Z,98577.13
2023-04-15T00:24:17.801Z,98573.75
2023-04-15T00:24:31.319Z,98573.84
2023-04-15T00:24:43.299Z,98575.53
2023-04-15T00:24:55.233Z,98575.41
2023-04-15T00:25:07.461Z,98570.19
2023-04-15T00:25:19.373Z,98577.00
2023-04-15T00:25:31.567Z,98573.44
2023-04-15T00:25:43.660Z,98575.97
2023-04-15T00:25:55.627Z,98578.50
2023-04-15T00:26:07.709Z,98568.22
2023-04-15T00:26:19.732Z,98569.88
2023-04-15T00:26:31.989Z,98579.34
2023-04-15T00:26:43.878Z,98575.34
2023-04-15T00:26:55.782Z,98576.41
2023-04-15T00:27:07.688Z,98577.31
2023-04-15T00:27:20.360Z,98568.78
2023-04-15T00:27:32.366Z,98574.13
2023-04-15T00:27:44.299Z,98575.81
2023-04-15T00:27:56.231Z,98575.91
2023-04-15T00:28:08.590Z,98568.94
2023-04-15T00:28:20.938Z,98574.97
2023-04-15T00:28:33.567Z,98574.03
2023-04-15T00:28:45.439Z,98570.56
2023-04-15T00:28:58.223Z,98571.38
2023-04-15T00:29:10.500Z,98582.47
2023-04-15T00:29:22.467Z,98579.81
2023-04-15T00:29:34.832Z,98573.00
2023-04-15T00:29:46.852Z,98578.13
2023-04-15T00:29:58.730Z,98564.31
2023-04-15T00:30:11.730Z,98572.94
2023-04-15T00:30:24.059Z,98579.78
2023-04-15T00:30:36.043Z,98569.50
2023-04-15T00:30:47.997Z,98572.16
2023-04-15T00:30:59.968Z,98570.47
2023-04-15T00:31:12.134Z,98573.94
2023-04-15T00:31:24.156Z,98573.94
2023-04-15T00:31:36.538Z,98570.47
2023-04-15T00:31:48.518Z,98575.63
2023-04-15T00:32:00.417Z,98571.41
2023-04-15T00:32:12.332Z,98574.06
2023-04-15T00:32:24.275Z,98571.50
2023-04-15T00:32:36.188Z,98572.34
2023-04-15T00:32:48.954Z,98568.88
2023-04-15T00:33:02.334Z,98570.56
2023-04-15T00:33:16.420Z,98571.44
2023-04-15T00:33:28.381Z,98575.72
2023-04-15T00:33:40.504Z,98568.88
2023-04-15T00:33:52.396Z,98573.19
2023-04-15T00:34:04.694Z,98568.03
2023-04-15T00:34:16.763Z,98572.25
2023-04-15T00:34:28.938Z,98570.56
2023-04-15T00:34:40.962Z,98566.25
2023-04-15T00:34:52.935Z,98573.06
2023-04-15T00:35:05.235Z,98571.38
2023-04-15T00:35:17.317Z,98572.25
2023-04-15T00:35:32.486Z,98562.72
2023-04-15T00:35:44.614Z,98568.66
2023-04-15T00:35:56.630Z,98567.84
2023-04-15T00:36:08.743Z,98572.16
2023-04-15T00:36:20.690Z,98567.00
2023-04-15T00:36:33.889Z,98564.41
2023-04-15T00:36:46.192Z,98572.94
2023-04-15T00:36:58.355Z,98566.88
2023-04-15T00:37:10.689Z,98573.84
2023-04-15T00:37:23.003Z,98570.38
2023-04-15T00:37:35.334Z,98569.47
2023-04-15T00:37:47.311Z,98563.44
2023-04-15T00:37:59.723Z,98572.00
2023-04-15T00:38:11.684Z,98571.97
2023-04-15T00:38:23.882Z,98570.25
2023-04-15T00:38:39.207Z,98568.59
2023-04-15T00:38:51.107Z,98568.66
2023-04-15T00:39:03.378Z,98574.66
2023-04-15T00:39:16.327Z,98563.50
2023-04-15T00:39:28.308Z,98572.16
2023-04-15T00:39:40.760Z,98566.22
2023-04-15T00:39:52.680Z,98570.41
2023-04-15T00:40:07.816Z,98568.66
2023-04-15T00:40:21.415Z,98571.16
2023-04-15T00:40:33.333Z,98565.22
2023-04-15T00:40:45.788Z,98568.66
2023-04-15T00:40:57.921Z,98568.66
2023-04-15T00:41:10.922Z,98573.84
2023-04-15T00:41:23.225Z,98569.50
2023-04-15T00:41:35.154Z,98563.56
2023-04-15T00:41:47.470Z,98572.16
2023-04-15T00:41:59.515Z,98565.22
2023-04-15T00:42:11.962Z,98568.59
2023-04-15T00:42:24.852Z,98567.78
2023-04-15T00:42:37.235Z,98572.03
2023-04-15T00:42:49.181Z,98568.63
2023-04-15T00:43:01.671Z,98568.59
2023-04-15T00:43:13.698Z,98566.06
2023-04-15T00:43:26.524Z,98567.72
2023-04-15T00:43:38.480Z,98568.59
2023-04-15T00:43:50.446Z,98563.34
2023-04-15T00:44:02.452Z,98565.09
2023-04-15T00:44:14.582Z,98568.47
2023-04-15T00:44:26.691Z,98567.63
2023-04-15T00:44:38.581Z,98565.09
2023-04-15T00:44:50.448Z,98573.69
2023-04-15T00:45:02.426Z,98567.59
2023-04-15T00:45:14.457Z,98557.28
2023-04-15T00:45:28.049Z,98567.59
2023-04-15T00:45:39.958Z,98564.09
2023-04-15T00:45:54.405Z,98564.09
2023-04-15T00:46:07.512Z,98566.69
2023-04-15T00:46:22.951Z,98563.22
2023-04-15T00:46:39.199Z,98562.38
2023-04-15T00:46:51.769Z,98571.75
2023-04-15T00:47:05.424Z,98568.44
2023-04-15T00:47:18.833Z,98566.69
2023-04-15T00:47:33.432Z,98564.91
2023-04-15T00:47:45.787Z,98570.06
2023-04-15T00:47:58.551Z,98562.31
2023-04-15T00:48:11.445Z,98566.69
2023-04-15T00:48:23.689Z,98571.00
2023-04-15T00:48:38.873Z,98570.19
2023-04-15T00:48:51.782Z,98565.00
2023-04-15T00:49:07.388Z,98558.94
2023-04-15T00:49:19.324Z,98569.22
2023-04-15T00:49:32.168Z,98563.22
2023-04-15T00:49:44.163Z,98570.06
2023-04-15T00:49:56.046Z,98566.66
2023-04-15T00:50:08.871Z,98560.56
2023-04-15T00:50:20.807Z,98566.59
2023-04-15T00:50:33.232Z,98566.53
2023-04-15T00:50:45.241Z,98560.50
2023-04-15T00:50:57.494Z,98566.50
2023-04-15T00:51:09.725Z,98567.31
2023-04-15T00:51:21.652Z,98564.69
2023-04-15T00:51:36.850Z,98567.28
2023-04-15T00:51:49.079Z,98566.50
2023-04-15T00:52:00.996Z,98565.66
2023-04-15T00:52:13.183Z,98558.06
2023-04-15T00:52:25.107Z,98568.31
2023-04-15T00:52:37.239Z,98563.13
2023-04-15T00:52:49.182Z,98562.28
2023-04-15T00:53:01.246Z,98565.69
2023-04-15T00:53:13.178Z,98560.50
2023-04-15T00:53:25.098Z,98565.66
2023-04-15T00:53:38.545Z,98564.81
2023-04-15T00:53:51.880Z,98563.88
2023-04-15T00:54:04.928Z,98569.03
2023-04-15T00:54:17.174Z,98557.88
2023-04-15T00:54:29.153Z,98559.53
2023-04-15T00:54:41.268Z,98566.50
2023-04-15T00:54:53.613Z,98559.53
2023-04-15T00:55:06.658Z,98564.81
2023-04-15T00:55:19.204Z,98561.31
2023-04-15T00:55:31.479Z,98564.81
2023-04-15T00:55:43.440Z,98557.06
2023-04-15T00:55:56.037Z,98563.13
2023-04-15T00:56:08.090Z,98564.81
2023-04-15T00:56:24.277Z,98559.75
2023-04-15T00:56:38.132Z,98569.22
2023-04-15T00:56:50.080Z,98565.81
2023-04-15T00:57:02.030Z,98561.53
2023-04-15T00:57:13.952Z,98566.69
2023-04-15T00:57:27.098Z,98564.09
2023-04-15T00:57:40.539Z,98565.91
2023-04-15T00:57:52.625Z,98558.94
2023-04-15T00:58:04.830Z,98563.22
2023-04-15T00:58:17.197Z,98561.44
2023-04-15T00:58:29.199Z,98565.00
2023-04-15T00:58:51.651Z,98564.22
2023-04-15T00:59:04.473Z,98561.69
2023-04-15T00:59:17.690Z,98563.31
2023-04-15T00:59:31.508Z,98565.06
2023-04-15T00:59:43.446Z,98566.69
2023-04-15T00:59:56.746Z,98567.59
2023-04-15T01:00:09.696Z,98562.47
2023-04-15T01:00:21.780Z,98561.53
2023-04-15T01:00:34.554Z,98568.38
2023-04-15T01:00:46.828Z,98566.00
2023-04-15T01:00:59.874Z,98560.72
2023-04-15T01:01:11.809Z,98567.59
2023-04-15T01:01:24.967Z,98571.84
2023-04-15T01:01:38.325Z,98569.22
2023-04-15T01:01:50.481Z,98568.38
2023-04-15T01:02:02.506Z,98564.91
2023-04-15T01:02:15.195Z,98566.53
2023-04-15T01:02:27.506Z,98570.03
2023-04-15T01:02:39.681Z,98563.94
2023-04-15T01:02:51.865Z,98566.59
2023-04-15T01:03:04.071Z,98570.81
2023-04-15T01:03:16.273Z,98568.28
2023-04-15T01:03:30.001Z,98570.06
2023-04-15T01:03:42.573Z,98564.09
2023-04-15T01:03:58.794Z,98562.38
2023-04-15T01:04:12.341Z,98566.69
2023-04-15T01:04:25.203Z,98567.53
2023-04-15T01:04:37.591Z,98564.91
2023-04-15T01:04:49.842Z,98564.91
2023-04-15T01:05:02.277Z,98569.22
2023-04-15T01:05:17.271Z,98566.69
2023-04-15T01:05:30.352Z,98560.72
2023-04-15T01:05:42.276Z,98565.09
2023-04-15T01:05:58.221Z,98570.25
2023-04-15T01:06:10.842Z,98565.00
2023-04-15T01:06:22.747Z,98566.69
2023-04-15T01:06:34.665Z,98561.53
2023-04-15T01:06:47.157Z,98563.31
2023-04-15T01:06:59.084Z,98564.22
2023-04-15T01:07:11.013Z,98564.22
2023-04-15T01:07:22.962Z,98566.81
2023-04-15T01:07:34.953Z,98559.16
2023-04-15T01:07:47.931Z,98570.38
2023-04-15T01:08:00.212Z,98565.28
2023-04-15T01:08:12.393Z,98563.63
2023-04-15T01:08:28.211Z,98569.63
2023-04-15T01:08:40.681Z,98563.56
2023-04-15T01:08:56.429Z,98568.66
2023-04-15T01:09:08.384Z,98559.19
2023-04-15T01:09:20.645Z,98566.88
2023-04-15T01:09:33.289Z,98563.50
2023-04-15T01:09:45.653Z,98563.50
2023-04-15T01:09:58.027Z,98562.72
2023-04-15T01:10:10.165Z,98561.03
2023-04-15T01:10:22.138Z,98567.91
2023-04-15T01:10:34.118Z,98561.94
2023-04-15T01:10:46.505Z,98563.63
2023-04-15T01:11:02.129Z,98571.38
2023-04-15T01:11:15.360Z,98560.97
2023-04-15T01:11:27.999Z,98562.69
2023-04-15T01:11:39.952Z,98564.41
2023-04-15T01:11:52.426Z,98565.22
2023-04-15T01:12:05.777Z,98566.09
2023-04-15T01:12:20.436Z,98563.50
2023-04-15T01:12:34.219Z,98562.63
2023-04-15T01:12:46.190Z,98562.69
2023-04-15T01:12:58.148Z,98558.47
2023-04-15T01:13:10.038Z,98567.19
2023-04-15T01:13:23.951Z,98561.13
2023-04-15T01:13:36.679Z,98563.66
2023-04-15T01:13:48.625Z,98563.72
2023-04-15T01:14:03.660Z,98563.72
2023-04-15T01:14:16.113Z,98565.41
2023-04-15T01:14:29.017Z,98563.66
2023-04-15T01:14:41.121Z,98567.09
2023-04-15T01:14:54.289Z,98561.94
2023-04-15T01:15:07.985Z,98555.09
2023-04-15T01:15:20.442Z,98561.09
2023-04-15T01:15:32.567Z,98565.41
2023-04-15T01:15:45.076Z,98562.84
2023-04-15T01:15:57.686Z,98556.75
2023-04-15T01:16:10.619Z,98558.47
2023-04-15T01:16:23.051Z,98562.72
2023-04-15T01:16:36.805Z,98554.94
2023-04-15T01:16:48.759Z,98561.84
2023-04-15T01:17:00.761Z,98560.97
2023-04-15T01:17:13.269Z,98567.09
2023-04-15T01:17:25.624Z,98563.63
2023-04-15T01:17:38.114Z,98564.50
2023-04-15T01:17:50.144Z,98567.09
2023-04-15T01:18:03.192Z,98562.75
2023-04-15T01:18:15.832Z,98563.66
2023-04-15T01:18:27.954Z,98561.03
2023-04-15T01:18:39.975Z,98561.84
2023-04-15T01:18:52.194Z,98559.25
2023-04-15T01:19:06.319Z,98556.75
2023-04-15T01:19:18.471Z,98561.94
2023-04-15T01:19:31.200Z,98555.09
2023-04-15T01:19:43.263Z,98560.28
2023-04-15T01:19:57.769Z,98561.09
2023-04-15T01:20:12.504Z,98562.03
2023-04-15T01:20:24.556Z,98558.59
2023-04-15T01:20:36.956Z,98562.91
2023-04-15T01:20:48.944Z,98559.47
2023-04-15T01:21:02.502Z,98559.47
2023-04-15T01:21:14.696Z,98559.59
2023-04-15T01:21:26.916Z,98556.25
2023-04-15T01:21:39.748Z,98563.91
2023-04-15T01:21:52.558Z,98557.91
2023-04-15T01:22:05.479Z,98563.78
2023-04-15T01:22:17.700Z,98560.34
2023-04-15T01:22:29.615Z,98560.34
2023-04-15T01:22:41.587Z,98561.13
2023-04-15T01:22:54.862Z,98562.84
2023-04-15T01:23:07.312Z,98559.38
2023-04-15T01:23:19.763Z,98560.25
2023-04-15T01:23:32.670Z,98561.94
2023-04-15T01:23:47.666Z,98555.09
2023-04-15T01:23:59.639Z,98558.56
2023-04-15T01:24:16.347Z,98563.72
2023-04-15T01:24:30.260Z,98557.13
2023-04-15T01:24:52.189Z,98560.63
2023-04-15T01:25:18.318Z,98562.47
2023-04-15T01:25:34.717Z,98559.09
2023-04-15T01:25:47.460Z,98563.34
2023-04-15T01:25:59.745Z,98560.88
2023-04-15T01:26:12.005Z,98555.69
2023-04-15T01:26:24.085Z,98561.72
2023-04-15T01:26:38.544Z,98558.25
2023-04-15T01:26:50.463Z,98563.34
2023-04-15T01:27:02.470Z,98559.94
2023-04-15T01:27:14.848Z,98555.63
2023-04-15T01:27:26.955Z,98558.19
2023-04-15T01:27:42.427Z,98558.16
2023-04-15T01:27:54.421Z,98555.56
2023-04-15T01:28:06.351Z,98561.63
2023-04-15T01:28:18.289Z,98559.38
2023-04-15T01:28:30.685Z,98561.25
2023-04-15T01:28:42.609Z,98557.97
2023-04-15T01:28:54.756Z,98564.91
2023-04-15T01:29:06.780Z,98565.84
2023-04-15T01:29:22.464Z,98561.53
2023-04-15T01:29:38.568Z,98560.66
2023-04-15T01:29:50.492Z,98564.81
2023-04-15T01:30:05.230Z,98563.88
2023-04-15T01:30:17.514Z,98558.69
2023-04-15T01:30:29.819Z,98560.34
2023-04-15T01:30:41.762Z,98555.25
2023-04-15T01:31:13.977Z,98564.75
2023-04-15T01:31:25.996Z,98567.41
2023-04-15T01:31:38.519Z,98563.09
2023-04-15T01:31:55.920Z,98559.72
2023-04-15T01:32:07.908Z,98567.41
2023-04-15T01:32:20.313Z,98568.22
2023-04-15T01:32:32.373Z,98568.25
2023-04-15T01:32:44.412Z,98572.56
2023-04-15T01:32:56.588Z,98573.38
2023-04-15T01:33:08.551Z,98568.22
2023-04-15T01:33:20.474Z,98576.81
2023-04-15T01:33:32.369Z,98561.25
2023-04-15T01:33:44.327Z,98568.28
2023-04-15T01:33:56.421Z,98569.19
2023-04-15T01:34:08.339Z,98569.06
2023-04-15T01:34:20.858Z,98563.03
2023-04-15T01:34:35.532Z,98572.59
2023-04-15T01:34:47.700Z,98561.44
2023-04-15T01:34:59.864Z,98566.50
2023-04-15T01:35:11.829Z,98571.66
2023-04-15T01:35:24.001Z,98564.72
2023-04-15T01:35:36.281Z,98567.25
2023-04-15T01:35:48.255Z,98557.78
2023-04-15T01:36:00.424Z,98564.63
2023-04-15T01:36:12.300Z,98558.56
2023-04-15T01:36:24.284Z,98564.56
2023-04-15T01:36:36.704Z,98563.66
2023-04-15T01:36:48.600Z,98567.97
2023-04-15T01:37:00.580Z,98567.91
2023-04-15T01:37:12.463Z,98561.91
2023-04-15T01:37:25.203Z,98562.81
2023-04-15T01:37:37.909Z,98563.78
2023-04-15T01:37:49.937Z,98566.31
2023-04-15T01:38:09.519Z,98562.94
2023-04-15T01:38:21.680Z,98567.25
2023-04-15T01:38:33.711Z,98568.09
2023-04-15T01:38:46.104Z,98569.00
2023-04-15T01:38:58.523Z,98562.09
2023-04-15T01:39:10.920Z,98559.47
2023-04-15T01:39:27.056Z,98566.47
2023-04-15T01:39:39.433Z,98569.88
2023-04-15T01:39:51.623Z,98561.25
2023-04-15T01:40:03.760Z,98563.13
2023-04-15T01:40:16.552Z,98562.25
2023-04-15T01:40:28.459Z,98564.91
2023-04-15T01:40:40.819Z,98564.91
2023-04-15T01:40:53.300Z,98564.94
2023-04-15T01:41:07.465Z,98571.03
2023-04-15T01:41:25.306Z,98560.66
2023-04-15T01:41:37.278Z,98566.00
2023-04-15T01:41:49.183Z,98566.88
2023-04-15T01:42:01.198Z,98559.94
2023-04-15T01:42:13.094Z,98562.50
2023-04-15T01:42:25.121Z,98568.56
2023-04-15T01:42:37.549Z,98568.47
2023-04-15T01:42:49.460Z,98564.22
2023-04-15T01:43:02.219Z,98565.19
2023-04-15T01:43:15.316Z,98561.72
2023-04-15T01:43:28.154Z,98560.03
2023-04-15T01:43:40.076Z,98560.03
2023-04-15T01:43:52.506Z,98564.34
2023-04-15T01:44:04.495Z,98561.03
2023-04-15T01:44:16.808Z,98558.34
2023-04-15T01:44:33.611Z,98560.91
2023-04-15T01:44:45.539Z,98562.69
2023-04-15T01:44:57.420Z,98563.59
2023-04-15T01:45:09.866Z,98560.31
2023-04-15T01:45:21.854Z,98555.97
2023-04-15T01:45:33.816Z,98557.00
2023-04-15T01:45:45.841Z,98555.22
2023-04-15T01:45:57.745Z,98557.06
2023-04-15T01:46:09.712Z,98557.94
2023-04-15T01:46:22.691Z,98558.66
2023-04-15T01:46:35.787Z,98559.41
2023-04-15T01:46:48.357Z,98559.34
2023-04-15T01:47:00.672Z,98560.19
2023-04-15T01:47:12.614Z,98551.78
2023-04-15T01:47:24.514Z,98554.19
2023-04-15T01:47:36.443Z,98564.56
2023-04-15T01:47:49.321Z,98558.53
2023-04-15T01:48:01.334Z,98553.28
2023-04-15T01:48:13.306Z,98558.44
2023-04-15T01:48:25.509Z,98557.59
2023-04-15T01:48:37.431Z,98555.94
2023-04-15T01:48:49.432Z,98556.81
2023-04-15T01:49:01.802Z,98551.66
2023-04-15T01:49:13.959Z,98558.44
2023-04-15T01:49:25.888Z,98555.03
2023-04-15T01:49:40.027Z,98558.47
2023-04-15T01:49:51.961Z,98556.81
2023-04-15T01:50:04.152Z,98555.91
2023-04-15T01:50:16.392Z,98552.44
2023-04-15T01:50:28.268Z,98559.31
2023-04-15T01:50:40.225Z,98548.94
2023-04-15T01:50:53.365Z,98550.56
2023-04-15T01:51:05.612Z,98546.16
2023-04-15T01:51:17.906Z,98554.69
2023-04-15T01:51:29.799Z,98552.91
2023-04-15T01:51:41.792Z,98551.22
2023-04-15T01:51:54.220Z,98549.44
2023-04-15T01:52:06.380Z,98552.81
2023-04-15T01:52:18.424Z,98554.50
2023-04-15T01:52:30.467Z,98551.94
2023-04-15T01:52:42.456Z,98546.78
2023-04-15T01:52:54.335Z,98552.72
2023-04-15T01:53:06.251Z,98551.03
2023-04-15T01:53:18.603Z,98549.34
2023-04-15T01:53:30.536Z,98549.41
2023-04-15T01:53:42.525Z,98547.75
2023-04-15T01:53:56.821Z,98552.13
2023-04-15T01:54:08.793Z,98544.38
2023-04-15T01:54:20.692Z,98551.44
2023-04-15T01:54:32.621Z,98554.97
2023-04-15T01:54:50.563Z,98555.16
2023-04-15T01:55:02.553Z,98546.50
2023-04-15T01:55:14.508Z,98555.94
2023-04-15T01:55:27.040Z,98558.53
2023-04-15T01:55:39.181Z,98553.38
2023-04-15T01:55:52.162Z,98548.25
2023-04-15T01:56:09.866Z,98546.47
2023-04-15T01:56:26.637Z,98544.84
2023-04-15T01:56:47.014Z,98550.81
2023-04-15T01:57:06.043Z,98548.22
2023-04-15T01:57:24.572Z,98547.38
2023-04-15T01:57:42.390Z,98553.38
2023-04-15T01:57:54.381Z,98549.09
2023-04-15T01:58:08.986Z,98550.06
2023-04-15T01:58:23.563Z,98558.72
2023-04-15T01:58:35.803Z,98552.78
2023-04-15T01:59:11.207Z,98557.00
2023-04-15T01:59:34.214Z,98557.00
2023-04-15T01:59:48.866Z,98563.06
2023-04-15T02:00:01.004Z,98551.00
2023-04-15T02:00:13.196Z,98559.69
2023-04-15T02:00:25.116Z,98558.88
2023-04-15T02:00:37.163Z,98552.75
2023-04-15T02:00:49.152Z,98551.84
2023-04-15T02:01:01.830Z,98558.78
2023-04-15T02:01:14.591Z,98554.50
2023-04-15T02:01:27.363Z,98558.78
2023-04-15T02:01:39.674Z,98564.06
2023-04-15T02:01:52.332Z,98553.81
2023-04-15T02:02:05.389Z,98560.56
2023-04-15T02:02:17.804Z,98558.78
2023-04-15T02:02:29.793Z,98559.56
2023-04-15T02:02:42.070Z,98555.34
2023-04-15T02:02:54.177Z,98555.34
2023-04-15T02:03:06.671Z,98562.09
2023-04-15T02:03:18.857Z,98558.66
2023-04-15T02:03:30.951Z,98558.72
2023-04-15T02:03:43.447Z,98556.13
2023-04-15T02:03:55.424Z,98562.09
2023-04-15T02:04:08.211Z,98560.38
2023-04-15T02:04:20.437Z,98560.38
2023-04-15T02:04:32.599Z,98556.94
2023-04-15T02:04:44.789Z,98556.94
2023-04-15T02:04:56.689Z,98556.81
2023-04-15T02:05:08.776Z,98563.75
2023-04-15T02:05:20.747Z,98555.22
2023-04-15T02:05:32.738Z,98556.94
2023-04-15T02:05:44.680Z,98559.53
2023-04-15T02:05:56.741Z,98560.34
2023-04-15T02:06:08.693Z,98556.88
2023-04-15T02:06:20.954Z,98561.97
2023-04-15T02:06:33.242Z,98562.03
2023-04-15T02:06:45.262Z,98553.44
2023-04-15T02:06:57.180Z,98560.34
2023-04-15T02:07:09.101Z,98552.66
2023-04-15T02:07:21.032Z,98557.81
2023-04-15T02:07:32.907Z,98553.44
2023-04-15T02:07:45.607Z,98554.31
2023-04-15T02:07:57.841Z,98554.25
2023-04-15T02:08:09.868Z,98558.53
2023-04-15T02:08:21.782Z,98552.59
2023-04-15T02:08:33.710Z,98551.75
2023-04-15T02:08:45.585Z,98548.28
2023-04-15T02:08:59.147Z,98544.88
2023-04-15T02:09:11.295Z,98559.47
2023-04-15T02:09:23.220Z,98553.38
2023-04-15T02:09:35.117Z,98548.28
2023-04-15T02:09:47.608Z,98557.81
2023-04-15T02:09:59.558Z,98553.56
2023-04-15T02:10:17.092Z,98553.44
2023-04-15T02:10:29.168Z,98554.25
2023-04-15T02:10:41.064Z,98555.03
2023-04-15T02:10:53.007Z,98555.91
2023-04-15T02:11:05.079Z,98556.66
2023-04-15T02:11:16.976Z,98549.81
2023-04-15T02:11:28.967Z,98557.47
2023-04-15T02:11:40.954Z,98552.19
2023-04-15T02:11:54.217Z,98551.31
2023-04-15T02:12:06.237Z,98559.00
2023-04-15T02:12:18.157Z,98553.78
2023-04-15T02:12:30.489Z,98556.38
2023-04-15T02:12:42.751Z,98553.78
2023-04-15T02:12:54.678Z,98554.59
2023-04-15T02:13:06.685Z,98552.91
2023-04-15T02:13:19.227Z,98548.59
2023-04-15T02:13:31.092Z,98554.59
2023-04-15T02:13:43.132Z,98555.50
2023-04-15T02:13:55.082Z,98556.38
2023-04-15T02:14:07.053Z,98549.53
2023-04-15T02:14:19.032Z,98549.63
2023-04-15T02:14:31.600Z,98547.94
2023-04-15T02:14:43.520Z,98554.81
2023-04-15T02:14:55.839Z,98553.16
2023-04-15T02:15:08.856Z,98553.19
2023-04-15T02:15:23.655Z,98550.75
2023-04-15T02:15:35.685Z,98554.19
2023-04-15T02:15:48.883Z,98556.81
2023-04-15T02:16:00.957Z,98552.66
2023-04-15T02:16:19.694Z,98554.38
2023-04-15T02:16:32.685Z,98552.72
2023-04-15T02:16:44.713Z,98550.97
2023-04-15T02:16:56.755Z,98552.72
2023-04-15T02:17:08.717Z,98550.97
2023-04-15T02:17:20.744Z,98554.38
2023-04-15T02:17:39.136Z,98551.81
2023-04-15T02:17:52.466Z,98556.09
2023-04-15T02:18:04.565Z,98552.66
2023-04-15T02:18:16.827Z,98556.94
2023-04-15T02:18:28.774Z,98547.56
2023-04-15T02:18:40.714Z,98554.53
2023-04-15T02:18:52.708Z,98552.94
2023-04-15T02:19:04.627Z,98554.72
2023-04-15T02:19:16.560Z,98551.19
2023-04-15T02:19:28.420Z,98550.44
2023-04-15T02:19:41.141Z,98546.22
2023-04-15T02:19:53.141Z,98549.00
2023-04-15T02:20:08.806Z,98552.66
2023-04-15T02:20:21.373Z,98556.22
2023-04-15T02:20:45.431Z,98555.53
2023-04-15T02:20:58.423Z,98555.66
2023-04-15T02:21:10.506Z,98558.22
2023-04-15T02:21:22.589Z,98559.16
2023-04-15T02:21:35.353Z,98565.13
2023-04-15T02:21:47.229Z,98555.66
2023-04-15T02:22:00.083Z,98559.06
2023-04-15T02:22:18.131Z,98559.94
2023-04-15T02:22:30.310Z,98555.66
2023-04-15T02:22:42.229Z,98553.16
2023-04-15T02:22:54.114Z,98555.03
2023-04-15T02:23:07.399Z,98555.81
2023-04-15T02:23:19.368Z,98559.25
2023-04-15T02:23:31.306Z,98548.94
2023-04-15T02:23:44.004Z,98556.63
2023-04-15T02:23:56.347Z,98560.25
2023-04-15T02:24:08.275Z,98556.78
2023-04-15T02:24:20.223Z,98554.41
2023-04-15T02:24:32.205Z,98554.41
2023-04-15T02:24:45.882Z,98554.59
2023-04-15T02:24:57.851Z,98561.38
2023-04-15T02:25:10.262Z,98552.84
2023-04-15T02:25:22.266Z,98557.19
2023-04-15T02:25:34.200Z,98560.75
2023-04-15T02:25:53.465Z,98551.50
2023-04-15T02:26:06.644Z,98555.91
2023-04-15T02:26:18.720Z,98542.50
2023-04-15T02:26:32.655Z,98549.38
2023-04-15T02:26:44.622Z,98554.66
2023-04-15T02:26:57.275Z,98553.06
2023-04-15T02:27:09.197Z,98558.22
2023-04-15T02:27:22.448Z,98558.34
2023-04-15T02:27:36.041Z,98560.22
2023-04-15T02:27:48.112Z,98555.13
2023-04-15T02:27:59.995Z,98554.28
2023-04-15T02:28:11.921Z,98553.47
2023-04-15T02:28:23.850Z,98554.38
2023-04-15T02:28:36.205Z,98551.88
2023-04-15T02:28:49.059Z,98551.94
2023-04-15T02:29:01.267Z,98553.69
2023-04-15T02:29:13.323Z,98544.28
2023-04-15T02:29:25.472Z,98548.53
2023-04-15T02:29:37.434Z,98556.13
2023-04-15T02:29:51.267Z,98547.53
2023-04-15T02:30:03.961Z,98556.75
2023-04-15T02:30:15.964Z,98548.97
2023-04-15T02:30:27.933Z,98551.47
2023-04-15T02:30:40.980Z,98550.50